Geyserville, CA (95441)

12:43 PM PST on March 06, 2015 (GMT -0800)
Geyserville | Change Station
CLOSE
Current Station
Personal Weather Station
Location: Geyserville, CA
Elevation: 207 ft
Nearby Weather Stations

Elev 207 ft 38.72 °N, 122.91 °W | Updated 1 second ago

Clear
Clear
70.9 °F
Feels Like 76 °F
N
3.5
Wind Variable Wind from WNW
Gusts 7.2 mph

Today
High -- | Low -- °F
--% Chance of Precip.
Yesterday
High -- | Low -- °F
Precip. -- in
6:36 AM 6:09 PM
Full, 99% visible
Pressure 30.24 in
Visibility 10.0 miles
Clouds Clear
Heat Index 76 °F
Dew Point 41 °F
Humidity 33%
Rainfall in
Snow Depth Not available.
UV 6 out of 12
Pollen 8.80 out of 12
Air Quality Not available.
Flu Activity Not available.
METAR KSTS 061953Z 33003KT 10SM CLR 20/05 A3025 RMK AO2 SLP238 T02000050

More Conditions Fewer Conditions

Pressure 30.24 in
Visibility 10.0 miles
Clouds Clear
Heat Index 76 °F
Dew Point 41 °F
Humidity 33%
Rainfall in
Snow Depth Not available.
UV 6 out of 12
Pollen 8.80 out of 12
Air Quality Not available.
Flu Activity Not available.
METAR KSTS 061953Z 33003KT 10SM CLR 20/05 A3025 RMK AO2 SLP238 T02000050

More Conditions Fewer Conditions

10-Day Weather Forecast

Almanac

Astronomy

Mar. 06, 2015 Rise Set
Actual Time
Civil Twilight
Nautical Twilight
Astronomical Twilight
Moon
Length of Visible Light
Length of Day
Tomorrow will be .
, % of the Moon is Illuminated

Today's Extremes

State Highs State Lows

Community

WunderPhotos

Upload Photos

1,803,389 photos uploaded!

WunderBlogs® & News

Nearby

Air Quality

  Air Quality AQ Index Pollutant
Not available.

Snow Depth

Station Depth Elevation

Earthquake Activity

City Distance Mag. Time & Date
Minimum magnitude displayed is 2.5.

Coastal Water Temperatures

Place Temperature

Nearby Weather Stations